Time;durP1;ratioP1;P1;durP2;ratioP2;P2;SDS_P1;SDS_P2;PMS_P1;PMS_P2;Temp;Humidity;BMP_temperature;BMP_pressure;BME280_temperature;BME280_humidity;BME280_pressure;Samples;Min_cycle;Max_cycle;Signal;HPM_P1;HPM_P2
2023/08/15 00:01:55;;;;;;;;;;;21.00;99.90;;;;;;5012979;28;19921;-77
2023/08/15 00:04:23;;;;;;;;;;;21.00;99.90;;;;;;5010755;28;19940;-78
2023/08/15 00:06:51;;;;;;;;;;;20.90;99.90;;;;;;5011669;28;19968;-77
2023/08/15 00:09:19;;;;;;;;;;;20.90;99.90;;;;;;5012754;28;19921;-78
2023/08/15 00:11:46;;;;;;;;;;;20.70;99.90;;;;;;5010927;28;19932;-79
2023/08/15 00:14:15;;;;;;;;;;;20.70;99.90;;;;;;5011792;28;19927;-77
2023/08/15 00:16:43;;;;;;;;;;;20.70;99.90;;;;;;5013146;28;20293;-77
2023/08/15 00:19:12;;;;;;;;;;;20.70;99.90;;;;;;5012170;28;19929;-80
2023/08/15 00:21:40;;;;;;;;;;;20.80;99.90;;;;;;5013427;28;19921;-77
2023/08/15 00:24:08;;;;;;;;;;;20.70;99.90;;;;;;5012810;28;19928;-77
2023/08/15 00:26:36;;;;;;;;;;;20.80;99.90;;;;;;5012931;28;20395;-78
2023/08/15 00:29:04;;;;;;;;;;;20.80;99.90;;;;;;5011617;28;19921;-78
2023/08/15 00:31:32;;;;;;;;;;;20.90;99.90;;;;;;5011045;28;19925;-81
2023/08/15 00:33:59;;;;;;;;;;;20.90;99.90;;;;;;5011454;28;20565;-77
2023/08/15 00:36:29;;;;;;;;;;;20.90;99.90;;;;;;5012795;28;19925;-76
2023/08/15 00:39:01;;;;;;;;;;;20.90;99.90;;;;;;5012210;28;19925;-77
2023/08/15 00:41:29;;;;;;;;;;;20.90;99.90;;;;;;5011149;28;19995;-77
2023/08/15 00:43:58;;;;;;;;;;;20.90;99.90;;;;;;5012503;28;19921;-77
2023/08/15 00:46:27;;;;;;;;;;;20.90;99.90;;;;;;5009150;28;19929;-78
2023/08/15 00:48:56;;;;;;;;;;;20.90;99.90;;;;;;5008830;28;20443;-73
2023/08/15 00:51:24;;;;;;;;;;;20.90;99.90;;;;;;5011870;28;19922;-73
2023/08/15 00:53:53;;;;;;;;;;;21.00;99.90;;;;;;5005017;28;19929;-74
2023/08/15 00:56:22;;;;;;;;;;;21.00;99.90;;;;;;4993605;28;20414;-75
2023/08/15 00:58:50;;;;;;;;;;;21.00;99.90;;;;;;5003015;28;19922;-74
2023/08/15 01:01:18;;;;;;;;;;;21.00;99.90;;;;;;5009958;28;19925;-77
2023/08/15 01:03:46;;;;;;;;;;;21.00;99.90;;;;;;5002429;28;19984;-75
2023/08/15 01:06:14;;;;;;;;;;;21.00;99.90;;;;;;5000487;28;20389;-74
2023/08/15 01:08:42;;;;;;;;;;;21.00;99.90;;;;;;4999602;28;19957;-74
2023/08/15 01:11:12;;;;;;;;;;;21.00;99.90;;;;;;5001186;28;19922;-75
2023/08/15 01:13:44;;;;;;;;;;;21.10;99.90;;;;;;5001547;28;19925;-75
2023/08/15 01:16:13;;;;;;;;;;;21.10;99.90;;;;;;4996315;28;19930;-74
2023/08/15 01:18:43;;;;;;;;;;;21.10;99.90;;;;;;4998737;28;20036;-75
2023/08/15 01:21:13;;;;;;;;;;;21.20;99.90;;;;;;4998036;28;20347;-74
2023/08/15 01:23:43;;;;;;;;;;;21.20;99.90;;;;;;4993183;28;20293;-75
2023/08/15 01:26:11;;;;;;;;;;;21.10;99.90;;;;;;5001421;28;19925;-75
2023/08/15 01:28:39;;;;;;;;;;;21.10;99.90;;;;;;4992976;28;19929;-76
2023/08/15 01:31:09;;;;;;;;;;;21.10;99.90;;;;;;4993325;28;19925;-75
2023/08/15 01:33:38;;;;;;;;;;;21.10;99.90;;;;;;4993082;28;19926;-75
2023/08/15 01:36:08;;;;;;;;;;;21.10;99.90;;;;;;4996474;28;19922;-75
2023/08/15 01:38:40;;;;;;;;;;;21.10;99.90;;;;;;5007424;28;19921;-75
2023/08/15 01:41:13;;;;;;;;;;;21.10;99.90;;;;;;4998663;28;19928;-75
2023/08/15 01:43:43;;;;;;;;;;;21.10;99.90;;;;;;5008139;28;19933;-77
2023/08/15 01:46:11;;;;;;;;;;;21.10;99.90;;;;;;5000755;28;19988;-74
2023/08/15 01:48:41;;;;;;;;;;;21.10;99.90;;;;;;4993800;28;20291;-75
2023/08/15 01:51:09;;;;;;;;;;;21.10;99.90;;;;;;5004132;28;19925;-75
2023/08/15 01:53:37;;;;;;;;;;;21.00;99.90;;;;;;5008837;28;19925;-74
2023/08/15 01:56:05;;;;;;;;;;;21.00;99.90;;;;;;5008721;28;20388;-74
2023/08/15 01:58:34;;;;;;;;;;;21.00;99.90;;;;;;5009534;28;20296;-74
2023/08/15 02:01:02;;;;;;;;;;;20.90;99.90;;;;;;4998486;28;20376;-74
2023/08/15 02:03:30;;;;;;;;;;;20.90;99.90;;;;;;5001858;28;19972;-74
2023/08/15 02:05:58;;;;;;;;;;;20.80;99.90;;;;;;4994012;28;19957;-74
2023/08/15 02:08:26;;;;;;;;;;;20.80;99.90;;;;;;4996032;28;19951;-72
2023/08/15 02:10:53;;;;;;;;;;;20.80;99.90;;;;;;4992637;28;19922;-75
2023/08/15 02:13:21;;;;;;;;;;;20.80;99.90;;;;;;4992667;28;20409;-75
2023/08/15 02:15:51;;;;;;;;;;;20.80;99.90;;;;;;4992632;28;20381;-75
2023/08/15 02:18:19;;;;;;;;;;;20.90;99.90;;;;;;4992484;28;19988;-74
2023/08/15 02:20:47;;;;;;;;;;;20.80;99.90;;;;;;4995959;28;19929;-74
2023/08/15 02:23:14;;;;;;;;;;;20.80;99.90;;;;;;4997145;28;19925;-74
2023/08/15 02:25:43;;;;;;;;;;;20.80;99.90;;;;;;4996080;28;20007;-74
2023/08/15 02:28:11;;;;;;;;;;;20.90;99.90;;;;;;4992399;28;19926;-74
2023/08/15 02:30:38;;;;;;;;;;;20.90;99.90;;;;;;4991975;28;19921;-74
2023/08/15 02:33:08;;;;;;;;;;;20.90;99.90;;;;;;5003115;28;20289;-73
2023/08/15 02:35:39;;;;;;;;;;;21.00;99.90;;;;;;5004740;28;19925;-73
2023/08/15 02:38:06;;;;;;;;;;;21.00;99.90;;;;;;5004956;28;19940;-75
2023/08/15 02:40:34;;;;;;;;;;;21.00;99.90;;;;;;5008396;28;19929;-74
2023/08/15 02:43:02;;;;;;;;;;;21.10;99.90;;;;;;5007668;28;19929;-74
2023/08/15 02:45:31;;;;;;;;;;;21.10;99.90;;;;;;5009291;28;19956;-74
2023/08/15 02:47:59;;;;;;;;;;;21.10;99.90;;;;;;5008052;28;19925;-74
2023/08/15 02:50:28;;;;;;;;;;;21.10;99.90;;;;;;5003502;28;20015;-74
2023/08/15 02:52:56;;;;;;;;;;;21.10;99.90;;;;;;5008331;28;19929;-74
2023/08/15 02:55:23;;;;;;;;;;;21.10;99.90;;;;;;5004200;28;19925;-74
2023/08/15 02:57:51;;;;;;;;;;;21.00;99.90;;;;;;5009487;28;19922;-77
2023/08/15 03:00:19;;;;;;;;;;;21.10;99.90;;;;;;5006925;28;19929;-74
2023/08/15 03:02:47;;;;;;;;;;;21.00;99.90;;;;;;5003530;28;19926;-74
2023/08/15 03:05:15;;;;;;;;;;;21.00;99.90;;;;;;5006908;28;19999;-74
2023/08/15 03:07:44;;;;;;;;;;;21.00;99.90;;;;;;5008929;28;19925;-74
2023/08/15 03:10:12;;;;;;;;;;;21.00;99.90;;;;;;5007196;28;20387;-74
2023/08/15 03:12:39;;;;;;;;;;;21.00;99.90;;;;;;5006731;28;19922;-76
2023/08/15 03:15:07;;;;;;;;;;;21.00;99.90;;;;;;5010857;28;19925;-75
2023/08/15 03:17:35;;;;;;;;;;;20.90;99.90;;;;;;5010912;28;19921;-75
2023/08/15 03:20:04;;;;;;;;;;;20.80;99.90;;;;;;5010837;28;19945;-76
2023/08/15 03:22:32;;;;;;;;;;;20.80;99.90;;;;;;5011533;28;19972;-75
2023/08/15 03:25:01;;;;;;;;;;;20.70;99.90;;;;;;5011224;28;19921;-77
2023/08/15 03:27:29;;;;;;;;;;;20.70;99.90;;;;;;5011346;28;19937;-79
2023/08/15 03:29:57;;;;;;;;;;;20.70;99.90;;;;;;5009087;28;20388;-78
2023/08/15 03:32:24;;;;;;;;;;;20.70;99.90;;;;;;5013621;28;19937;-79
2023/08/15 03:34:52;;;;;;;;;;;20.70;99.90;;;;;;5012068;28;19921;-79
2023/08/15 03:37:20;;;;;;;;;;;20.70;99.90;;;;;;5014168;28;19921;-78
2023/08/15 03:39:48;;;;;;;;;;;20.70;99.90;;;;;;5012202;28;19921;-77
2023/08/15 03:42:17;;;;;;;;;;;20.70;99.90;;;;;;5013621;28;19936;-76
2023/08/15 03:44:44;;;;;;;;;;;20.70;99.90;;;;;;5011341;28;19921;-77
2023/08/15 03:47:12;;;;;;;;;;;20.60;99.90;;;;;;5012395;28;19928;-77
2023/08/15 03:49:40;;;;;;;;;;;20.70;99.90;;;;;;5011176;28;19933;-77
2023/08/15 03:52:08;;;;;;;;;;;20.70;99.90;;;;;;5013396;28;19925;-77
2023/08/15 03:54:35;;;;;;;;;;;20.70;99.90;;;;;;5013043;28;19921;-77
2023/08/15 03:57:03;;;;;;;;;;;20.70;99.90;;;;;;5011742;28;19993;-77
2023/08/15 03:59:32;;;;;;;;;;;20.60;99.90;;;;;;5011145;28;19921;-77
2023/08/15 04:02:00;;;;;;;;;;;20.70;99.90;;;;;;5004277;28;19921;-78
2023/08/15 04:04:28;;;;;;;;;;;20.70;99.90;;;;;;4999255;28;19922;-78
2023/08/15 04:06:56;;;;;;;;;;;20.70;99.90;;;;;;5001853;28;19930;-76
2023/08/15 04:09:23;;;;;;;;;;;20.70;99.90;;;;;;4999462;28;19944;-75
2023/08/15 04:11:51;;;;;;;;;;;20.70;99.90;;;;;;4994720;28;19929;-75
2023/08/15 04:14:19;;;;;;;;;;;20.70;99.90;;;;;;4999833;28;19991;-75
2023/08/15 04:16:48;;;;;;;;;;;20.80;99.90;;;;;;5012422;28;20395;-75
2023/08/15 04:19:16;;;;;;;;;;;20.80;99.90;;;;;;5006456;28;19921;-74
2023/08/15 04:21:44;;;;;;;;;;;20.70;99.90;;;;;;5009527;28;19921;-76
2023/08/15 04:24:12;;;;;;;;;;;20.70;99.90;;;;;;5010293;28;19921;-78
2023/08/15 04:26:39;;;;;;;;;;;20.70;99.90;;;;;;5009442;28;19932;-77
2023/08/15 04:29:07;;;;;;;;;;;20.80;99.90;;;;;;5009787;28;19921;-77
2023/08/15 04:31:35;;;;;;;;;;;20.80;99.90;;;;;;5011158;28;19975;-77
2023/08/15 04:34:05;;;;;;;;;;;20.70;99.90;;;;;;5012386;28;19925;-77
2023/08/15 04:36:33;;;;;;;;;;;20.70;99.90;;;;;;5010407;28;19929;-77
2023/08/15 04:39:01;;;;;;;;;;;20.60;99.90;;;;;;5011783;28;19928;-77
2023/08/15 04:41:29;;;;;;;;;;;20.60;99.90;;;;;;5011572;28;19921;-77
2023/08/15 04:43:57;;;;;;;;;;;20.50;99.90;;;;;;5010460;28;19948;-77
2023/08/15 04:46:25;;;;;;;;;;;20.50;99.90;;;;;;5012652;28;19921;-77
2023/08/15 04:48:53;;;;;;;;;;;20.30;99.90;;;;;;5008651;28;19922;-77
2023/08/15 04:51:22;;;;;;;;;;;20.20;99.90;;;;;;5004460;28;19976;-78
2023/08/15 04:53:50;;;;;;;;;;;20.20;99.90;;;;;;5001978;28;19926;-78
2023/08/15 04:56:17;;;;;;;;;;;20.10;99.90;;;;;;4994840;28;19925;-76
2023/08/15 04:58:45;;;;;;;;;;;20.10;99.90;;;;;;5008806;28;19925;-77
2023/08/15 05:01:13;;;;;;;0.80;0.80;;;20.00;99.90;;;;;;5009786;28;20187;-76
2023/08/15 05:03:41;;;;;;;1.70;0.90;;;20.00;99.90;;;;;;5004729;28;20567;-76
2023/08/15 05:06:09;;;;;;;0.88;0.80;;;20.00;99.90;;;;;;5009853;28;20216;-76
2023/08/15 05:08:39;;;;;;;1.27;1.17;;;19.90;99.90;;;;;;5011282;28;20581;-76
2023/08/15 05:11:08;;;;;;;1.05;0.95;;;19.90;99.90;;;;;;5009833;28;20209;-76
2023/08/15 05:13:36;;;;;;;0.90;0.83;;;20.00;99.90;;;;;;5009085;28;20209;-78
2023/08/15 05:16:04;;;;;;;1.00;0.80;;;19.90;99.90;;;;;;5010069;28;19973;-77
2023/08/15 05:18:32;;;;;;;;;;;19.90;99.90;;;;;;5011544;28;20081;-77
2023/08/15 05:21:00;;;;;;;;;;;19.90;99.90;;;;;;5007804;28;19988;-76
2023/08/15 05:23:28;;;;;;;;;;;19.90;99.90;;;;;;5011232;28;19964;-75
2023/08/15 05:25:57;;;;;;;;;;;20.00;99.90;;;;;;5010993;28;20427;-75
2023/08/15 05:28:25;;;;;;;;;;;20.00;99.90;;;;;;5009139;28;19964;-75
2023/08/15 05:30:53;;;;;;;;;;;20.00;99.90;;;;;;5007230;28;19963;-75
2023/08/15 05:33:20;;;;;;;;;;;20.00;99.90;;;;;;5011146;28;19971;-75
2023/08/15 05:35:49;;;;;;;;;;;20.10;99.90;;;;;;5008419;28;19969;-76
2023/08/15 05:38:16;;;;;;;;;;;20.10;99.90;;;;;;5006795;28;20329;-75
2023/08/15 05:40:44;;;;;;;;;;;20.20;99.90;;;;;;5008284;28;20324;-76
2023/08/15 05:43:13;;;;;;;;;;;20.30;99.90;;;;;;5010106;28;19972;-76
2023/08/15 05:45:43;;;;;;;;;;;20.30;99.90;;;;;;5006165;28;19976;-75
2023/08/15 05:48:11;;;;;;;;;;;20.40;99.90;;;;;;5008905;28;19983;-75
2023/08/15 05:50:39;;;;;;;;;;;20.50;99.90;;;;;;5008765;28;19963;-76
2023/08/15 05:53:07;;;;;;;;;;;20.50;99.90;;;;;;5001837;28;19968;-76
2023/08/15 05:55:35;;;;;;;;;;;20.60;99.90;;;;;;5008558;28;20300;-76
2023/08/15 05:58:03;;;;;;;;;;;20.60;99.90;;;;;;5008252;28;20313;-76
2023/08/15 06:00:33;;;;;;;;;;;20.70;99.90;;;;;;5001224;28;19965;-76
2023/08/15 06:03:01;;;;;;;;;;;20.70;99.90;;;;;;4995357;28;19965;-76
2023/08/15 06:05:30;;;;;;;;;;;20.70;99.90;;;;;;4992875;28;19972;-76
2023/08/15 06:07:58;;;;;;;;;;;20.80;99.90;;;;;;5000580;28;19971;-76
2023/08/15 06:10:26;;;;;;;;;;;20.90;99.90;;;;;;4992642;28;20067;-75
2023/08/15 06:12:54;;;;;;;;;;;21.00;99.90;;;;;;5000418;28;19964;-76
2023/08/15 06:15:22;;;;;;;;;;;21.00;99.90;;;;;;5003929;28;19964;-76
2023/08/15 06:17:52;;;;;;;;;;;21.10;99.90;;;;;;5008309;28;19987;-75
2023/08/15 06:20:20;;;;;;;;;;;21.00;99.90;;;;;;5009681;28;19960;-76
2023/08/15 06:22:48;;;;;;;;;;;21.10;99.90;;;;;;5009411;28;19968;-77
2023/08/15 06:25:16;;;;;;;;;;;21.10;99.90;;;;;;5012619;28;19964;-76
2023/08/15 06:27:44;;;;;;;;;;;21.20;99.90;;;;;;5011784;28;19959;-76
2023/08/15 06:30:12;;;;;;;;;;;21.20;99.90;;;;;;5011950;28;19975;-76
2023/08/15 06:32:40;;;;;;;;;;;21.10;99.90;;;;;;5013977;28;20327;-76
2023/08/15 06:35:09;;;;;;;;;;;21.20;99.90;;;;;;5012165;28;19969;-76
2023/08/15 06:37:37;;;;;;;;;;;21.30;99.90;;;;;;5017411;28;20066;-76
2023/08/15 06:40:08;;;;;;;;;;;21.40;99.90;;;;;;5015907;28;19969;-76
2023/08/15 06:42:35;;;;;;;;;;;21.40;99.90;;;;;;5012371;28;19972;-77
2023/08/15 06:45:05;;;;;;;;;;;21.50;99.90;;;;;;5007109;28;20457;-76
2023/08/15 06:47:33;;;;;;;;;;;21.60;99.90;;;;;;5008412;28;20042;-75
2023/08/15 06:50:01;;;;;;;;;;;21.80;99.90;;;;;;5007740;28;19966;-76
2023/08/15 06:52:30;;;;;;;;;;;21.90;99.90;;;;;;5009403;28;20526;-76
2023/08/15 06:54:59;;;;;;;;;;;22.10;99.90;;;;;;5002275;28;19960;-76
2023/08/15 06:57:27;;;;;;;;;;;22.20;99.90;;;;;;5008492;28;19968;-75
2023/08/15 06:59:55;;;;;;;;;;;22.40;99.90;;;;;;5009345;28;20027;-76
2023/08/15 07:02:23;;;;;;;;;;;22.50;99.90;;;;;;5000092;28;19968;-79
2023/08/15 07:04:51;;;;;;;;;;;22.60;99.90;;;;;;5018422;28;19961;-77
2023/08/15 07:07:19;;;;;;;;;;;22.70;99.90;;;;;;5018532;28;20006;-76
2023/08/15 07:09:49;;;;;;;;;;;22.80;99.90;;;;;;5019659;28;19959;-75
2023/08/15 07:12:18;;;;;;;;;;;22.90;99.90;;;;;;5016202;28;19981;-76
2023/08/15 07:14:46;;;;;;;;;;;23.00;99.90;;;;;;5006134;28;19968;-77
2023/08/15 07:17:14;;;;;;;;;;;23.10;99.90;;;;;;5015328;28;19991;-76
2023/08/15 07:19:42;;;;;;;;;;;23.20;99.90;;;;;;5010161;28;20368;-77
2023/08/15 07:22:10;;;;;;;;;;;23.20;99.90;;;;;;5014849;28;20012;-76
2023/08/15 07:24:38;;;;;;;;;;;23.30;99.90;;;;;;5018125;28;21691;-77
2023/08/15 07:27:07;;;;;;;;;;;23.40;99.90;;;;;;5016913;28;20359;-76
2023/08/15 07:29:35;;;;;;;;;;;23.40;99.90;;;;;;5013617;28;19968;-76
2023/08/15 07:32:03;;;;;;;;;;;23.50;99.90;;;;;;5020730;28;20282;-76
2023/08/15 07:34:32;;;;;;;;;;;23.60;99.90;;;;;;5016111;28;19968;-77
2023/08/15 07:36:59;;;;;;;;;;;23.60;99.90;;;;;;5016798;28;19972;-76
2023/08/15 07:39:27;;;;;;;;;;;23.70;99.90;;;;;;5009439;28;20428;-77
2023/08/15 07:41:55;;;;;;;;;;;23.60;99.90;;;;;;5007318;28;19972;-74
2023/08/15 07:44:25;;;;;;;;;;;23.70;99.90;;;;;;5011538;28;19965;-76
2023/08/15 07:46:53;;;;;;;;;;;23.70;99.90;;;;;;5013193;28;19965;-75
2023/08/15 07:49:21;;;;;;;;;;;23.70;99.90;;;;;;5010066;28;19960;-75
2023/08/15 07:51:49;;;;;;;;;;;23.80;99.90;;;;;;5017099;28;19960;-75
2023/08/15 07:54:17;;;;;;;;;;;23.90;99.90;;;;;;5010520;28;19960;-75
2023/08/15 07:56:44;;;;;;;;;;;24.10;99.90;;;;;;5013809;28;19964;-76
2023/08/15 07:59:13;;;;;;;;;;;24.20;99.90;;;;;;5010918;28;19968;-75
2023/08/15 08:01:43;;;;;;;;;;;24.30;99.90;;;;;;5013756;28;20023;-75
2023/08/15 08:04:13;;;;;;;;;;;24.40;99.90;;;;;;5015026;28;19961;-75
2023/08/15 08:06:55;;;;;;;;;;;24.60;99.90;;;;;;5013241;28;20434;-75
2023/08/15 08:09:23;;;;;;;;;;;24.70;99.90;;;;;;4998318;28;19975;-76
2023/08/15 08:11:52;;;;;;;;;;;24.80;99.90;;;;;;5015766;28;19965;-76
2023/08/15 08:14:19;;;;;;;;;;;24.90;99.90;;;;;;5015784;28;19982;-76
2023/08/15 08:16:49;;;;;;;;;;;25.00;99.90;;;;;;5014906;28;20034;-75
2023/08/15 08:19:16;;;;;;;;;;;25.10;99.90;;;;;;5014552;28;19967;-74
2023/08/15 08:21:44;;;;;;;;;;;25.10;99.90;;;;;;5010881;28;19967;-74
2023/08/15 08:24:12;;;;;;;;;;;25.10;99.90;;;;;;5011299;28;19969;-75
2023/08/15 08:26:40;;;;;;;;;;;25.10;99.90;;;;;;5015294;28;20006;-74
2023/08/15 08:29:23;;;;;;;;;;;25.10;99.90;;;;;;5013402;28;20006;-74
2023/08/15 08:31:52;;;;;;;;;;;25.30;99.90;;;;;;5013088;28;20419;-74
2023/08/15 08:34:21;;;;;;;;;;;25.40;99.90;;;;;;5013246;28;20057;-75
2023/08/15 08:36:49;;;;;;;;;;;25.50;99.90;;;;;;5013386;28;19972;-74
2023/08/15 08:39:16;;;;;;;;;;;25.70;99.90;;;;;;5010740;28;19972;-74
2023/08/15 08:41:58;;;;;;;;;;;25.70;99.90;;;;;;5011968;28;19959;-74
2023/08/15 08:44:27;;;;;;;;;;;25.90;99.90;;;;;;5009350;28;19922;-75
2023/08/15 08:46:56;;;;;;;;;;;26.00;99.90;;;;;;5017026;28;20392;-75
2023/08/15 08:49:24;;;;;;;;;;;26.30;99.90;;;;;;5018604;28;20008;-74
2023/08/15 08:51:52;;;;;;;;;;;26.40;99.90;;;;;;5005879;28;20377;-74
2023/08/15 08:54:20;;;;;;;;;;;26.40;99.90;;;;;;5005143;28;20290;-74
2023/08/15 08:57:04;;;;;;;;;;;26.60;99.90;;;;;;5003714;28;19929;-74
2023/08/15 08:59:32;;;;;;;;;;;26.70;99.90;;;;;;5008283;28;19922;-75
2023/08/15 09:02:01;;;;;;;;;;;26.90;99.90;;;;;;5006117;28;19921;-77
2023/08/15 09:04:29;;;;;;;;;;;27.00;99.90;;;;;;5006697;28;19983;-77
2023/08/15 09:06:57;;;;;;;;;;;27.30;99.90;;;;;;5008920;28;20323;-77
2023/08/15 09:09:25;;;;;;;;;;;27.50;99.90;;;;;;5006608;28;19980;-77
2023/08/15 09:11:52;;;;;;;;;;;27.60;99.90;;;;;;5004877;28;20567;-78
2023/08/15 09:14:20;;;;;;;;;;;27.70;99.90;;;;;;5009169;28;19945;-77
2023/08/15 09:16:49;;;;;;;;;;;27.70;99.90;;;;;;5009573;28;19944;-77
2023/08/15 09:19:18;;;;;;;;;;;28.00;99.90;;;;;;5008019;28;20534;-77
2023/08/15 09:21:46;;;;;;;;;;;28.20;99.90;;;;;;5008273;28;19929;-77
2023/08/15 09:24:14;;;;;;;;;;;28.30;99.90;;;;;;5005895;28;19961;-77
2023/08/15 09:26:42;;;;;;;;;;;28.50;99.90;;;;;;5010383;28;20429;-78
2023/08/15 09:29:10;;;;;;;;;;;28.70;99.90;;;;;;5005610;28;19925;-77
2023/08/15 09:31:39;;;;;;;;;;;29.00;99.90;;;;;;5008027;28;19921;-77
2023/08/15 09:34:09;;;;;;;;;;;29.00;99.90;;;;;;5007115;28;19968;-78
2023/08/15 09:36:38;;;;;;;;;;;29.20;99.90;;;;;;5008639;28;20240;-78
2023/08/15 09:39:08;;;;;;;;;;;29.30;99.90;;;;;;5005352;28;19926;-77
2023/08/15 09:41:40;;;;;;;;;;;29.00;99.90;;;;;;5014476;28;19972;-76
2023/08/15 09:44:08;;;;;;;;;;;29.00;99.90;;;;;;5005809;28;19929;-76
2023/08/15 09:46:36;;;;;;;;;;;28.90;99.90;;;;;;5003693;28;19925;-77
2023/08/15 09:49:04;;;;;;;;;;;28.60;99.90;;;;;;5002840;28;20678;-78
2023/08/15 09:51:33;;;;;;;;;;;28.30;99.90;;;;;;5002720;28;20390;-77
2023/08/15 09:54:02;;;;;;;;;;;28.50;99.90;;;;;;5009079;28;19921;-75
2023/08/15 09:56:30;;;;;;;;;;;28.40;99.90;;;;;;5010639;28;19928;-77
2023/08/15 09:58:58;;;;;;;;;;;28.20;99.90;;;;;;5006321;28;19960;-76
2023/08/15 10:01:29;;;;;;;;;;;28.00;99.90;;;;;;5005320;28;19933;-79
2023/08/15 10:03:58;;;;;;;;;;;27.90;99.90;;;;;;5008874;28;19921;-76
2023/08/15 10:06:26;;;;;;;;;;;27.90;99.90;;;;;;5006633;28;20359;-77
2023/08/15 10:08:54;;;;;;;;;;;28.10;99.90;;;;;;5000475;28;19968;-76
2023/08/15 10:11:25;;;;;;;;;;;28.10;99.90;;;;;;5006776;28;19929;-77
2023/08/15 10:13:53;;;;;;;;;;;28.30;99.90;;;;;;5007059;28;20316;-76
2023/08/15 10:16:21;;;;;;;;;;;28.40;99.90;;;;;;5006940;28;19929;-77
2023/08/15 10:18:53;;;;;;;;;;;28.30;99.90;;;;;;5006658;28;19929;-77
2023/08/15 10:21:23;;;;;;;;;;;28.40;99.90;;;;;;5008906;28;19921;-76
2023/08/15 10:23:53;;;;;;;;;;;28.20;99.90;;;;;;5005123;28;19921;-77
2023/08/15 10:26:21;;;;;;;;;;;28.10;99.90;;;;;;5007416;28;19972;-77
2023/08/15 10:28:50;;;;;;;;;;;28.10;99.90;;;;;;5007363;28;19935;-77
2023/08/15 10:31:34;;;;;;;;;;;27.90;99.90;;;;;;5013457;28;20048;-76
2023/08/15 10:34:02;;;;;;;;;;;27.70;99.90;;;;;;5010582;28;20407;-77
2023/08/15 10:36:30;;;;;;;;;;;27.60;99.90;;;;;;5009717;28;20021;-76
2023/08/15 10:39:03;;;;;;;;;;;27.60;99.90;;;;;;5013802;28;19921;-76
2023/08/15 10:41:31;;;;;;;;;;;27.50;99.90;;;;;;5008094;28;19929;-73
2023/08/15 10:44:02;;;;;;;;;;;27.40;99.90;;;;;;5007958;28;19921;-76
2023/08/15 10:46:31;;;;;;;;;;;27.30;99.90;;;;;;5012352;28;19921;-77
2023/08/15 10:49:01;;;;;;;;;;;27.20;99.90;;;;;;5010409;28;20008;-77
2023/08/15 10:51:32;;;;;;;;;;;27.10;99.90;;;;;;5005804;28;20014;-77
2023/08/15 10:54:00;;;;;;;;;;;27.00;99.90;;;;;;5009003;28;20388;-77
2023/08/15 10:56:29;;;;;;;;;;;26.70;99.90;;;;;;5010795;28;19929;-79
2023/08/15 10:58:58;;;;;;;;;;;26.30;99.90;;;;;;5012195;28;19921;-78
2023/08/15 11:01:28;;;;;;;;;;;25.80;99.90;;;;;;5013788;28;20339;-80
2023/08/15 11:03:57;;;;;;;;;;;25.20;99.90;;;;;;5012175;28;20000;-79
2023/08/15 11:06:25;;;;;;;;;;;24.90;99.90;;;;;;5015089;28;19921;-77
2023/08/15 11:08:53;;;;;;;;;;;24.50;99.90;;;;;;5003195;28;19926;-78
2023/08/15 11:11:21;;;;;;;;;;;24.10;99.90;;;;;;5015827;28;19928;-78
2023/08/15 11:13:50;;;;;;;;;;;23.70;99.90;;;;;;5005076;28;19925;-78
2023/08/15 11:16:19;;;;;;;;;;;23.40;99.90;;;;;;5007652;28;19948;-78
2023/08/15 11:18:48;;;;;;;;;;;23.30;99.90;;;;;;5011328;28;20456;-75
2023/08/15 11:21:17;;;;;;;;;;;23.20;99.90;;;;;;5010348;28;19921;-75
2023/08/15 11:23:45;;;;;;;;;;;23.10;99.90;;;;;;5007174;28;19922;-76
2023/08/15 11:26:18;;;;;;;;;;;23.10;99.90;;;;;;5007787;28;20419;-75
2023/08/15 11:28:46;;;;;;;;;;;23.00;99.90;;;;;;5002541;28;20009;-75
2023/08/15 11:31:15;;;;;;;;;;;22.90;99.90;;;;;;5006686;28;20426;-73
2023/08/15 11:33:51;;;;;;;;;;;22.80;99.90;;;;;;5006829;28;19921;-74
2023/08/15 11:36:21;;;;;;;;;;;22.70;99.90;;;;;;5005830;28;19921;-78
2023/08/15 11:38:48;;;;;;;;;;;22.60;99.90;;;;;;5015219;28;19932;-77
2023/08/15 11:41:17;;;;;;;;;;;22.50;99.90;;;;;;5016033;28;19921;-76
2023/08/15 11:43:45;;;;;;;;;;;22.50;99.90;;;;;;5015621;28;19922;-78
2023/08/15 11:46:12;;;;;;;;;;;22.60;99.90;;;;;;5016815;28;19928;-76
2023/08/15 11:48:43;;;;;;;;;;;22.70;99.90;;;;;;5015728;28;20387;-76
2023/08/15 11:51:18;;;;;;;;;;;22.70;99.90;;;;;;5016240;28;19928;-77
2023/08/15 11:53:49;;;;;;;;;;;22.80;99.90;;;;;;4995299;28;19921;-77
2023/08/15 11:56:17;;;;;;;;;;;22.60;99.90;;;;;;5019703;28;20574;-76
2023/08/15 11:58:45;;;;;;;;;;;22.50;99.90;;;;;;5023171;28;20394;-79
2023/08/15 12:01:14;;;;;;;;;;;22.40;99.90;;;;;;5016221;28;20024;-77
2023/08/15 12:03:42;;;;;;;;;;;22.30;99.90;;;;;;5015018;28;19921;-78
2023/08/15 12:06:11;;;;;;;;;;;22.30;99.90;;;;;;5014957;28;19921;-78
2023/08/15 12:08:43;;;;;;;;;;;22.40;99.90;;;;;;5014119;28;20427;-79
2023/08/15 12:11:13;;;;;;;;;;;22.40;99.90;;;;;;5009977;28;19944;-78
2023/08/15 12:13:41;;;;;;;;;;;22.40;99.90;;;;;;5051638;22;19929;-70
2023/08/15 12:16:10;;;;;;;;;;;22.30;99.90;;;;;;5029300;28;20227;-71
2023/08/15 12:18:39;;;;;;;;;;;22.20;99.90;;;;;;5028767;28;20145;-71
2023/08/15 12:21:07;;;;;;;;;;;22.10;99.90;;;;;;5024054;28;19927;-71
2023/08/15 12:23:38;;;;;;;;;;;22.10;99.90;;;;;;5028853;28;20620;-71
2023/08/15 12:26:07;;;;;;;;;;;22.10;99.90;;;;;;5031375;28;19928;-71
2023/08/15 12:28:35;;;;;;;;;;;22.10;99.90;;;;;;5028549;28;19988;-72
2023/08/15 12:31:03;;;;;;;;;;;22.10;99.90;;;;;;5029312;28;19967;-72
2023/08/15 12:33:33;;;;;;;;;;;22.10;99.90;;;;;;5029520;28;19926;-70
2023/08/15 12:36:14;;;;;;;;;;;22.00;99.90;;;;;;5027492;28;19975;-69
2023/08/15 12:38:43;;;;;;;;;;;22.00;99.90;;;;;;5028249;28;19921;-70
2023/08/15 12:41:13;;;;;;;;;;;22.00;99.90;;;;;;5030779;28;19929;-70
2023/08/15 12:43:41;;;;;;;;;;;22.10;99.90;;;;;;5029213;28;20025;-73
2023/08/15 12:46:10;;;;;;;;;;;22.10;99.90;;;;;;5030094;28;19971;-70
2023/08/15 12:48:38;;;;;;;;;;;22.00;99.90;;;;;;5028782;28;20587;-68
2023/08/15 12:51:05;;;;;;;;;;;22.00;99.90;;;;;;5029396;28;19921;-68
2023/08/15 12:53:33;;;;;;;;;;;21.90;99.90;;;;;;5027505;28;19921;-68
2023/08/15 12:56:01;;;;;;;;;;;21.90;99.90;;;;;;5027343;28;19924;-67
2023/08/15 12:58:31;;;;;;;;;;;21.90;99.90;;;;;;5027979;28;20379;-67
2023/08/15 13:01:00;;;;;;;;;;;21.90;99.90;;;;;;5031087;28;20392;-68
2023/08/15 13:03:30;;;;;;;;;;;21.80;99.90;;;;;;5027897;28;19925;-68
2023/08/15 13:05:58;;;;;;;;;;;21.70;99.90;;;;;;5028984;28;19937;-70
2023/08/15 13:08:25;;;;;;;;;;;21.70;99.90;;;;;;5027694;28;19956;-70
2023/08/15 13:10:53;;;;;;;;;;;21.60;99.90;;;;;;5029102;28;19921;-72
2023/08/15 13:13:21;;;;;;;;;;;21.50;99.90;;;;;;5028735;28;19930;-72
2023/08/15 13:15:51;;;;;;;;;;;21.50;99.90;;;;;;5030809;28;20580;-71
2023/08/15 13:18:19;;;;;;;;;;;21.50;99.90;;;;;;5028399;28;20308;-71
2023/08/15 13:20:46;;;;;;;;;;;21.50;99.90;;;;;;5027573;28;20702;-71
2023/08/15 13:23:14;;;;;;;;;;;21.60;99.90;;;;;;5028826;28;20351;-71
2023/08/15 13:25:42;;;;;;;;;;;21.60;99.90;;;;;;5027143;28;19921;-70
2023/08/15 13:28:10;;;;;;;;;;;21.70;99.90;;;;;;5027858;28;19968;-70
2023/08/15 13:30:37;;;;;;;;;;;21.70;99.90;;;;;;5026109;28;19925;-70
2023/08/15 13:33:07;;;;;;;;;;;21.80;99.90;;;;;;5028110;28;19920;-71
2023/08/15 13:35:35;;;;;;;;;;;21.90;99.90;;;;;;5030306;28;19921;-71
2023/08/15 13:38:02;;;;;;;;;;;22.00;99.90;;;;;;5036431;28;20300;-71
2023/08/15 13:40:30;;;;;;;;;;;22.00;99.90;;;;;;5028287;28;20346;-71
2023/08/15 13:42:59;;;;;;;;;;;22.10;99.90;;;;;;5030003;28;19928;-69
2023/08/15 13:45:27;;;;;;;;;;;22.20;99.90;;;;;;5028278;28;20000;-71
2023/08/15 13:47:54;;;;;;;;;;;22.60;99.90;;;;;;5027933;28;19925;-70
2023/08/15 13:50:24;;;;;;;;;;;23.10;99.90;;;;;;5027241;28;20015;-71
2023/08/15 13:52:51;;;;;;;;;;;23.70;99.90;;;;;;5028258;28;19921;-70
2023/08/15 13:55:19;;;;;;;;;;;23.90;99.90;;;;;;5028894;28;19929;-71
2023/08/15 13:57:47;;;;;;;;;;;23.80;99.90;;;;;;5026043;28;19974;-70
2023/08/15 14:00:15;;;;;;;;;;;23.60;99.90;;;;;;5026807;28;19921;-70
2023/08/15 14:02:43;;;;;;;;;;;23.60;99.90;;;;;;5028591;28;19924;-71
2023/08/15 14:05:11;;;;;;;;;;;23.50;99.90;;;;;;5027981;28;19921;-71
2023/08/15 14:07:40;;;;;;;;;;;23.40;99.90;;;;;;5028919;28;20342;-70
2023/08/15 14:10:09;;;;;;;;;;;23.20;99.90;;;;;;5030129;28;19932;-70
2023/08/15 14:12:36;;;;;;;;;;;23.00;99.90;;;;;;5033700;28;19921;-70
2023/08/15 14:15:05;;;;;;;;;;;22.70;99.90;;;;;;5025432;28;20282;-71
2023/08/15 14:17:36;;;;;;;;;;;22.60;99.90;;;;;;5028597;28;20164;-70
2023/08/15 14:20:04;;;;;;;;;;;22.50;99.90;;;;;;5031389;28;19971;-70
2023/08/15 14:22:32;;;;;;;;;;;22.50;99.90;;;;;;5031321;28;19921;-70
2023/08/15 14:25:01;;;;;;;;;;;22.60;99.90;;;;;;5026296;28;19929;-70